sensor_id;sensor_type;location;lat;lon;timestamp;pressure;altitude;pressure_sealevel;temperature;humidity
84994;BME280;75309;44.830;20.460;2024-01-16T00:00:14;99916.84;;;3.83;71.97
84994;BME280;75309;44.830;20.460;2024-01-16T00:03:02;99912.98;;;3.86;71.93
84994;BME280;75309;44.830;20.460;2024-01-16T00:05:30;99904.14;;;3.92;71.76
84994;BME280;75309;44.830;20.460;2024-01-16T00:07:58;99903.58;;;3.96;71.57
84994;BME280;75309;44.830;20.460;2024-01-16T00:10:28;99909.27;;;4.00;71.42
84994;BME280;75309;44.830;20.460;2024-01-16T00:12:55;99912.59;;;4.05;71.21
84994;BME280;75309;44.830;20.460;2024-01-16T00:15:23;99918.80;;;4.09;70.99
84994;BME280;75309;44.830;20.460;2024-01-16T00:17:52;99924.55;;;4.12;70.85
84994;BME280;75309;44.830;20.460;2024-01-16T00:20:21;99939.58;;;4.11;70.78
84994;BME280;75309;44.830;20.460;2024-01-16T00:22:51;99947.55;;;4.11;71.03
84994;BME280;75309;44.830;20.460;2024-01-16T00:25:19;99955.77;;;4.12;71.31
84994;BME280;75309;44.830;20.460;2024-01-16T00:27:47;99953.30;;;4.15;71.42
84994;BME280;75309;44.830;20.460;2024-01-16T00:30:15;99946.61;;;4.17;71.59
84994;BME280;75309;44.830;20.460;2024-01-16T00:32:43;99946.77;;;4.17;71.53
84994;BME280;75309;44.830;20.460;2024-01-16T00:35:12;99956.11;;;4.17;71.33
84994;BME280;75309;44.830;20.460;2024-01-16T00:37:41;99955.73;;;4.16;71.25
84994;BME280;75309;44.830;20.460;2024-01-16T00:40:09;99956.09;;;4.17;71.14
84994;BME280;75309;44.830;20.460;2024-01-16T00:42:37;99964.53;;;4.16;70.96
84994;BME280;75309;44.830;20.460;2024-01-16T00:45:06;99968.00;;;4.15;70.91
84994;BME280;75309;44.830;20.460;2024-01-16T00:47:33;99978.14;;;4.14;70.80
84994;BME280;75309;44.830;20.460;2024-01-16T00:50:02;99975.10;;;4.12;70.70
84994;BME280;75309;44.830;20.460;2024-01-16T00:52:30;99981.11;;;4.08;70.70
84994;BME280;75309;44.830;20.460;2024-01-16T00:54:58;99985.81;;;4.04;70.50
84994;BME280;75309;44.830;20.460;2024-01-16T00:57:26;99988.96;;;4.00;70.47
84994;BME280;75309;44.830;20.460;2024-01-16T00:59:55;99994.13;;;3.99;70.58
84994;BME280;75309;44.830;20.460;2024-01-16T01:02:22;99993.77;;;3.99;70.54
84994;BME280;75309;44.830;20.460;2024-01-16T01:04:51;99996.18;;;3.99;70.78
84994;BME280;75309;44.830;20.460;2024-01-16T01:07:19;99992.16;;;4.00;71.08
84994;BME280;75309;44.830;20.460;2024-01-16T01:09:46;99995.72;;;4.02;71.20
84994;BME280;75309;44.830;20.460;2024-01-16T01:12:14;99998.72;;;4.04;71.26
84994;BME280;75309;44.830;20.460;2024-01-16T01:14:43;100006.89;;;4.05;71.11
84994;BME280;75309;44.830;20.460;2024-01-16T01:17:11;100011.31;;;4.05;70.89
84994;BME280;75309;44.830;20.460;2024-01-16T01:19:39;100009.69;;;4.04;70.77
84994;BME280;75309;44.830;20.460;2024-01-16T01:22:07;100026.73;;;4.02;70.52
84994;BME280;75309;44.830;20.460;2024-01-16T01:24:35;100039.23;;;3.99;70.51
84994;BME280;75309;44.830;20.460;2024-01-16T01:27:04;100048.67;;;3.98;70.46
84994;BME280;75309;44.830;20.460;2024-01-16T01:29:33;100048.19;;;3.96;70.38
84994;BME280;75309;44.830;20.460;2024-01-16T01:32:01;100041.29;;;3.91;70.28
84994;BME280;75309;44.830;20.460;2024-01-16T01:34:30;100045.19;;;3.86;70.36
84994;BME280;75309;44.830;20.460;2024-01-16T01:36:59;100048.52;;;3.83;70.50
84994;BME280;75309;44.830;20.460;2024-01-16T01:39:27;100048.23;;;3.78;70.49
84994;BME280;75309;44.830;20.460;2024-01-16T01:41:55;100045.73;;;3.74;70.58
84994;BME280;75309;44.830;20.460;2024-01-16T01:44:24;100043.52;;;3.69;70.74
84994;BME280;75309;44.830;20.460;2024-01-16T01:46:56;100041.89;;;3.67;71.14
84994;BME280;75309;44.830;20.460;2024-01-16T01:49:25;100044.91;;;3.69;71.64
84994;BME280;75309;44.830;20.460;2024-01-16T01:51:54;100053.11;;;3.70;72.09
84994;BME280;75309;44.830;20.460;2024-01-16T01:54:23;100062.20;;;3.72;72.11
84994;BME280;75309;44.830;20.460;2024-01-16T01:56:52;100063.58;;;3.74;72.06
84994;BME280;75309;44.830;20.460;2024-01-16T01:59:21;100064.23;;;3.74;71.78
84994;BME280;75309;44.830;20.460;2024-01-16T02:01:52;100067.16;;;3.75;71.55
84994;BME280;75309;44.830;20.460;2024-01-16T02:04:24;100052.95;;;3.75;71.32
84994;BME280;75309;44.830;20.460;2024-01-16T02:06:54;100054.60;;;3.72;71.24
84994;BME280;75309;44.830;20.460;2024-01-16T02:09:24;100067.85;;;3.70;71.19
84994;BME280;75309;44.830;20.460;2024-01-16T02:11:52;100084.73;;;3.69;71.22
84994;BME280;75309;44.830;20.460;2024-01-16T02:14:22;100081.16;;;3.69;70.97
84994;BME280;75309;44.830;20.460;2024-01-16T02:16:51;100084.88;;;3.69;70.93
84994;BME280;75309;44.830;20.460;2024-01-16T02:19:19;100092.16;;;3.66;70.97
84994;BME280;75309;44.830;20.460;2024-01-16T02:21:48;100091.13;;;3.63;70.94
84994;BME280;75309;44.830;20.460;2024-01-16T02:24:20;100098.86;;;3.60;71.00
84994;BME280;75309;44.830;20.460;2024-01-16T02:26:49;100111.40;;;3.57;71.33
84994;BME280;75309;44.830;20.460;2024-01-16T02:29:19;100121.55;;;3.57;71.75
84994;BME280;75309;44.830;20.460;2024-01-16T02:31:47;100130.15;;;3.62;72.00
84994;BME280;75309;44.830;20.460;2024-01-16T02:34:16;100126.98;;;3.67;72.40
84994;BME280;75309;44.830;20.460;2024-01-16T02:36:44;100128.47;;;3.71;72.55
84994;BME280;75309;44.830;20.460;2024-01-16T02:39:12;100134.25;;;3.75;72.28
84994;BME280;75309;44.830;20.460;2024-01-16T02:41:40;100136.03;;;3.76;71.91
84994;BME280;75309;44.830;20.460;2024-01-16T02:44:10;100134.50;;;3.73;71.85
84994;BME280;75309;44.830;20.460;2024-01-16T02:46:38;100144.36;;;3.71;71.50
84994;BME280;75309;44.830;20.460;2024-01-16T02:49:07;100139.92;;;3.68;71.41
84994;BME280;75309;44.830;20.460;2024-01-16T02:51:36;100134.53;;;3.69;71.33
84994;BME280;75309;44.830;20.460;2024-01-16T02:54:06;100128.89;;;3.68;71.17
84994;BME280;75309;44.830;20.460;2024-01-16T02:56:35;100131.05;;;3.65;71.10
84994;BME280;75309;44.830;20.460;2024-01-16T02:59:03;100121.09;;;3.63;71.23
84994;BME280;75309;44.830;20.460;2024-01-16T03:01:32;100122.83;;;3.64;71.19
84994;BME280;75309;44.830;20.460;2024-01-16T03:04:00;100146.82;;;3.63;71.18
84994;BME280;75309;44.830;20.460;2024-01-16T03:06:28;100169.38;;;3.63;71.33
84994;BME280;75309;44.830;20.460;2024-01-16T03:08:58;100170.72;;;3.63;71.70
84994;BME280;75309;44.830;20.460;2024-01-16T03:11:26;100164.36;;;3.66;72.02
84994;BME280;75309;44.830;20.460;2024-01-16T03:13:54;100173.32;;;3.71;72.19
84994;BME280;75309;44.830;20.460;2024-01-16T03:16:22;100185.46;;;3.75;72.22
84994;BME280;75309;44.830;20.460;2024-01-16T03:18:51;100183.61;;;3.78;72.02
84994;BME280;75309;44.830;20.460;2024-01-16T03:21:19;100187.85;;;3.80;71.77
84994;BME280;75309;44.830;20.460;2024-01-16T03:23:47;100184.17;;;3.76;71.55
84994;BME280;75309;44.830;20.460;2024-01-16T03:26:16;100181.78;;;3.73;71.43
84994;BME280;75309;44.830;20.460;2024-01-16T03:28:44;100179.27;;;3.69;71.22
84994;BME280;75309;44.830;20.460;2024-01-16T03:31:13;100181.14;;;3.66;71.34
84994;BME280;75309;44.830;20.460;2024-01-16T03:33:42;100183.89;;;3.64;71.31
84994;BME280;75309;44.830;20.460;2024-01-16T03:36:11;100184.89;;;3.64;71.25
84994;BME280;75309;44.830;20.460;2024-01-16T03:38:44;100193.98;;;3.61;71.19
84994;BME280;75309;44.830;20.460;2024-01-16T03:41:12;100189.87;;;3.58;71.39
84994;BME280;75309;44.830;20.460;2024-01-16T03:43:42;100188.23;;;3.59;71.69
84994;BME280;75309;44.830;20.460;2024-01-16T03:46:11;100193.91;;;3.60;71.98
84994;BME280;75309;44.830;20.460;2024-01-16T03:48:40;100196.88;;;3.59;72.09
84994;BME280;75309;44.830;20.460;2024-01-16T03:51:10;100203.59;;;3.60;72.11
84994;BME280;75309;44.830;20.460;2024-01-16T03:53:38;100215.21;;;3.62;71.78
84994;BME280;75309;44.830;20.460;2024-01-16T03:56:06;100217.73;;;3.64;71.54
84994;BME280;75309;44.830;20.460;2024-01-16T03:58:36;100227.23;;;3.64;71.41
84994;BME280;75309;44.830;20.460;2024-01-16T04:01:04;100230.75;;;3.63;71.28
84994;BME280;75309;44.830;20.460;2024-01-16T04:03:32;100235.77;;;3.60;71.49
84994;BME280;75309;44.830;20.460;2024-01-16T04:06:00;100246.73;;;3.59;71.40
84994;BME280;75309;44.830;20.460;2024-01-16T04:08:29;100247.95;;;3.57;71.44
84994;BME280;75309;44.830;20.460;2024-01-16T04:10:57;100253.00;;;3.59;71.36
84994;BME280;75309;44.830;20.460;2024-01-16T04:13:25;100256.18;;;3.56;71.77
84994;BME280;75309;44.830;20.460;2024-01-16T04:15:55;100253.94;;;3.53;71.51
84994;BME280;75309;44.830;20.460;2024-01-16T04:18:25;100256.58;;;3.52;71.47
84994;BME280;75309;44.830;20.460;2024-01-16T04:20:53;100262.91;;;3.53;71.83
84994;BME280;75309;44.830;20.460;2024-01-16T04:23:22;100275.04;;;3.54;72.08
84994;BME280;75309;44.830;20.460;2024-01-16T04:25:51;100284.02;;;3.57;72.41
84994;BME280;75309;44.830;20.460;2024-01-16T04:28:20;100296.53;;;3.59;72.27
84994;BME280;75309;44.830;20.460;2024-01-16T04:30:49;100299.56;;;3.61;72.01
84994;BME280;75309;44.830;20.460;2024-01-16T04:33:17;100297.02;;;3.61;71.91
84994;BME280;75309;44.830;20.460;2024-01-16T04:35:45;100301.65;;;3.62;71.79
84994;BME280;75309;44.830;20.460;2024-01-16T04:38:14;100309.80;;;3.62;71.61
84994;BME280;75309;44.830;20.460;2024-01-16T04:40:42;100307.86;;;3.61;71.78
84994;BME280;75309;44.830;20.460;2024-01-16T04:43:10;100313.14;;;3.62;71.39
84994;BME280;75309;44.830;20.460;2024-01-16T04:45:38;100310.61;;;3.62;71.36
84994;BME280;75309;44.830;20.460;2024-01-16T04:48:06;100313.98;;;3.59;71.30
84994;BME280;75309;44.830;20.460;2024-01-16T04:50:38;100322.71;;;3.58;71.30
84994;BME280;75309;44.830;20.460;2024-01-16T04:53:06;100322.48;;;3.54;71.48
84994;BME280;75309;44.830;20.460;2024-01-16T04:55:34;100327.96;;;3.52;71.94
84994;BME280;75309;44.830;20.460;2024-01-16T04:58:02;100327.70;;;3.54;72.17
84994;BME280;75309;44.830;20.460;2024-01-16T05:00:30;100330.67;;;3.58;72.38
84994;BME280;75309;44.830;20.460;2024-01-16T05:02:59;100335.90;;;3.62;72.22
84994;BME280;75309;44.830;20.460;2024-01-16T05:05:28;100335.27;;;3.65;72.07
84994;BME280;75309;44.830;20.460;2024-01-16T05:07:57;100333.45;;;3.66;71.81
84994;BME280;75309;44.830;20.460;2024-01-16T05:10:25;100332.65;;;3.64;71.68
84994;BME280;75309;44.830;20.460;2024-01-16T05:12:53;100339.08;;;3.66;71.48
84994;BME280;75309;44.830;20.460;2024-01-16T05:15:22;100342.16;;;3.67;71.27
84994;BME280;75309;44.830;20.460;2024-01-16T05:17:50;100346.98;;;3.65;71.18
84994;BME280;75309;44.830;20.460;2024-01-16T05:20:19;100356.63;;;3.65;71.01
84994;BME280;75309;44.830;20.460;2024-01-16T05:22:47;100371.66;;;3.62;71.05
84994;BME280;75309;44.830;20.460;2024-01-16T05:25:15;100373.70;;;3.60;71.05
84994;BME280;75309;44.830;20.460;2024-01-16T05:27:45;100369.02;;;3.58;70.94
84994;BME280;75309;44.830;20.460;2024-01-16T05:30:13;100372.68;;;3.54;71.13
84994;BME280;75309;44.830;20.460;2024-01-16T05:32:41;100372.09;;;3.56;71.42
84994;BME280;75309;44.830;20.460;2024-01-16T05:35:09;100368.36;;;3.61;71.74
84994;BME280;75309;44.830;20.460;2024-01-16T05:37:37;100374.96;;;3.68;71.92
84994;BME280;75309;44.830;20.460;2024-01-16T05:40:06;100383.13;;;3.73;71.99
84994;BME280;75309;44.830;20.460;2024-01-16T05:42:35;100390.67;;;3.79;72.01
84994;BME280;75309;44.830;20.460;2024-01-16T05:45:04;100395.52;;;3.83;71.93
84994;BME280;75309;44.830;20.460;2024-01-16T05:47:32;100398.55;;;3.84;71.55
84994;BME280;75309;44.830;20.460;2024-01-16T05:50:01;100406.14;;;3.82;71.37
84994;BME280;75309;44.830;20.460;2024-01-16T05:52:29;100408.44;;;3.79;71.08
84994;BME280;75309;44.830;20.460;2024-01-16T05:54:57;100413.13;;;3.75;71.07
84994;BME280;75309;44.830;20.460;2024-01-16T05:57:27;100416.40;;;3.74;70.96
84994;BME280;75309;44.830;20.460;2024-01-16T05:59:55;100420.17;;;3.72;70.86
84994;BME280;75309;44.830;20.460;2024-01-16T06:02:23;100423.21;;;3.69;70.90
84994;BME280;75309;44.830;20.460;2024-01-16T06:04:52;100419.95;;;3.69;70.96
84994;BME280;75309;44.830;20.460;2024-01-16T06:07:20;100419.48;;;3.69;70.96
84994;BME280;75309;44.830;20.460;2024-01-16T06:09:48;100421.05;;;3.70;70.97
84994;BME280;75309;44.830;20.460;2024-01-16T06:12:16;100419.90;;;3.70;70.91
84994;BME280;75309;44.830;20.460;2024-01-16T06:14:45;100422.78;;;3.70;71.10
84994;BME280;75309;44.830;20.460;2024-01-16T06:17:13;100425.96;;;3.72;71.49
84994;BME280;75309;44.830;20.460;2024-01-16T06:19:41;100429.42;;;3.73;71.62
84994;BME280;75309;44.830;20.460;2024-01-16T06:22:09;100439.42;;;3.76;71.76
84994;BME280;75309;44.830;20.460;2024-01-16T06:24:38;100446.50;;;3.78;71.94
84994;BME280;75309;44.830;20.460;2024-01-16T06:27:06;100452.41;;;3.79;71.80
84994;BME280;75309;44.830;20.460;2024-01-16T06:29:34;100456.69;;;3.80;71.52
84994;BME280;75309;44.830;20.460;2024-01-16T06:32:03;100469.98;;;3.81;71.39
84994;BME280;75309;44.830;20.460;2024-01-16T06:34:31;100476.88;;;3.80;71.25
84994;BME280;75309;44.830;20.460;2024-01-16T06:37:00;100479.60;;;3.80;70.91
84994;BME280;75309;44.830;20.460;2024-01-16T06:39:28;100485.41;;;3.79;70.81
84994;BME280;75309;44.830;20.460;2024-01-16T06:41:56;100490.77;;;3.78;70.96
84994;BME280;75309;44.830;20.460;2024-01-16T06:44:24;100503.36;;;3.76;70.82
84994;BME280;75309;44.830;20.460;2024-01-16T06:46:52;100502.52;;;3.74;70.78
84994;BME280;75309;44.830;20.460;2024-01-16T06:49:20;100511.69;;;3.72;70.77
84994;BME280;75309;44.830;20.460;2024-01-16T06:51:49;100517.02;;;3.71;70.74
84994;BME280;75309;44.830;20.460;2024-01-16T06:54:16;100522.91;;;3.69;70.83
84994;BME280;75309;44.830;20.460;2024-01-16T06:56:44;100524.23;;;3.72;70.91
84994;BME280;75309;44.830;20.460;2024-01-16T06:59:14;100528.23;;;3.76;71.15
84994;BME280;75309;44.830;20.460;2024-01-16T07:01:44;100534.19;;;3.80;71.45
84994;BME280;75309;44.830;20.460;2024-01-16T07:04:12;100541.69;;;3.86;71.62
84994;BME280;75309;44.830;20.460;2024-01-16T07:06:44;100553.90;;;3.93;71.67
84994;BME280;75309;44.830;20.460;2024-01-16T07:09:12;100557.82;;;3.98;71.68
84994;BME280;75309;44.830;20.460;2024-01-16T07:11:40;100563.38;;;4.02;71.47
84994;BME280;75309;44.830;20.460;2024-01-16T07:14:10;100571.05;;;4.04;71.28
84994;BME280;75309;44.830;20.460;2024-01-16T07:16:39;100580.37;;;4.07;71.01
84994;BME280;75309;44.830;20.460;2024-01-16T07:19:07;100587.23;;;4.08;70.93
84994;BME280;75309;44.830;20.460;2024-01-16T07:21:36;100588.48;;;4.09;70.63
84994;BME280;75309;44.830;20.460;2024-01-16T07:24:04;100592.59;;;4.09;70.44
84994;BME280;75309;44.830;20.460;2024-01-16T07:26:32;100595.11;;;4.11;70.31
84994;BME280;75309;44.830;20.460;2024-01-16T07:29:00;100601.60;;;4.12;70.23
84994;BME280;75309;44.830;20.460;2024-01-16T07:31:28;100599.38;;;4.12;70.11
84994;BME280;75309;44.830;20.460;2024-01-16T07:33:56;100600.13;;;4.08;70.18
84994;BME280;75309;44.830;20.460;2024-01-16T07:36:24;100598.55;;;4.05;70.08
84994;BME280;75309;44.830;20.460;2024-01-16T07:38:52;100597.59;;;4.03;70.18
84994;BME280;75309;44.830;20.460;2024-01-16T07:41:20;100602.58;;;4.04;70.02
84994;BME280;75309;44.830;20.460;2024-01-16T07:43:48;100606.61;;;4.04;70.15
84994;BME280;75309;44.830;20.460;2024-01-16T07:46:17;100610.09;;;4.00;70.09
84994;BME280;75309;44.830;20.460;2024-01-16T07:48:45;100611.27;;;3.98;70.18
84994;BME280;75309;44.830;20.460;2024-01-16T07:51:14;100613.98;;;3.96;70.23
84994;BME280;75309;44.830;20.460;2024-01-16T07:53:42;100617.64;;;3.95;70.11
84994;BME280;75309;44.830;20.460;2024-01-16T07:56:10;100620.73;;;3.93;70.15
84994;BME280;75309;44.830;20.460;2024-01-16T07:58:39;100622.55;;;3.95;70.15
84994;BME280;75309;44.830;20.460;2024-01-16T08:01:07;100621.25;;;3.98;70.42
84994;BME280;75309;44.830;20.460;2024-01-16T08:03:35;100623.52;;;4.03;70.77
84994;BME280;75309;44.830;20.460;2024-01-16T08:06:03;100633.17;;;4.08;71.00
84994;BME280;75309;44.830;20.460;2024-01-16T08:08:31;100638.81;;;4.13;71.07
84994;BME280;75309;44.830;20.460;2024-01-16T08:11:02;100642.55;;;4.17;70.92
84994;BME280;75309;44.830;20.460;2024-01-16T08:13:30;100648.35;;;4.22;71.10
84994;BME280;75309;44.830;20.460;2024-01-16T08:15:58;100650.70;;;4.27;70.82
84994;BME280;75309;44.830;20.460;2024-01-16T08:18:26;100653.09;;;4.30;70.52
84994;BME280;75309;44.830;20.460;2024-01-16T08:20:54;100651.08;;;4.34;70.29
84994;BME280;75309;44.830;20.460;2024-01-16T08:23:24;100655.42;;;4.38;70.15
84994;BME280;75309;44.830;20.460;2024-01-16T08:25:53;100655.30;;;4.43;69.95
84994;BME280;75309;44.830;20.460;2024-01-16T08:28:21;100657.91;;;4.47;69.89
84994;BME280;75309;44.830;20.460;2024-01-16T08:30:52;100657.25;;;4.49;69.73
84994;BME280;75309;44.830;20.460;2024-01-16T08:33:20;100661.88;;;4.54;69.57
84994;BME280;75309;44.830;20.460;2024-01-16T08:36:00;100661.84;;;4.59;69.52
84994;BME280;75309;44.830;20.460;2024-01-16T08:38:28;100666.04;;;4.61;69.41
84994;BME280;75309;44.830;20.460;2024-01-16T08:40:56;100668.78;;;4.63;69.25
84994;BME280;75309;44.830;20.460;2024-01-16T08:43:24;100670.15;;;4.63;68.98
84994;BME280;75309;44.830;20.460;2024-01-16T08:45:53;100674.87;;;4.63;69.12
84994;BME280;75309;44.830;20.460;2024-01-16T08:48:21;100678.73;;;4.64;69.04
84994;BME280;75309;44.830;20.460;2024-01-16T08:50:50;100680.59;;;4.64;68.89
84994;BME280;75309;44.830;20.460;2024-01-16T08:53:18;100684.14;;;4.67;69.10
84994;BME280;75309;44.830;20.460;2024-01-16T08:55:47;100690.77;;;4.71;69.06
84994;BME280;75309;44.830;20.460;2024-01-16T08:58:15;100691.98;;;4.79;69.16
84994;BME280;75309;44.830;20.460;2024-01-16T09:00:43;100697.30;;;4.84;69.14
84994;BME280;75309;44.830;20.460;2024-01-16T09:03:12;100697.52;;;4.89;68.97
84994;BME280;75309;44.830;20.460;2024-01-16T09:05:40;100705.53;;;4.95;68.91
84994;BME280;75309;44.830;20.460;2024-01-16T09:08:09;100710.73;;;4.99;68.58
84994;BME280;75309;44.830;20.460;2024-01-16T09:10:40;100710.48;;;5.00;68.32
84994;BME280;75309;44.830;20.460;2024-01-16T09:13:08;100715.96;;;5.01;68.15
84994;BME280;75309;44.830;20.460;2024-01-16T09:15:36;100719.96;;;5.02;67.99
84994;BME280;75309;44.830;20.460;2024-01-16T09:18:04;100724.20;;;5.02;67.92
84994;BME280;75309;44.830;20.460;2024-01-16T09:20:33;100726.97;;;5.02;67.87
84994;BME280;75309;44.830;20.460;2024-01-16T09:23:01;100732.78;;;5.03;67.73
84994;BME280;75309;44.830;20.460;2024-01-16T09:25:30;100738.10;;;5.01;67.86
84994;BME280;75309;44.830;20.460;2024-01-16T09:27:58;100740.98;;;5.01;67.80
84994;BME280;75309;44.830;20.460;2024-01-16T09:30:26;100737.77;;;4.99;67.76
84994;BME280;75309;44.830;20.460;2024-01-16T09:32:55;100739.92;;;4.96;67.62
84994;BME280;75309;44.830;20.460;2024-01-16T09:35:23;100742.23;;;4.95;67.45
84994;BME280;75309;44.830;20.460;2024-01-16T09:37:51;100741.09;;;4.93;67.43
84994;BME280;75309;44.830;20.460;2024-01-16T09:40:20;100738.98;;;4.92;67.04
84994;BME280;75309;44.830;20.460;2024-01-16T09:42:48;100737.07;;;4.91;67.13
84994;BME280;75309;44.830;20.460;2024-01-16T09:45:20;100741.59;;;4.90;66.87
84994;BME280;75309;44.830;20.460;2024-01-16T09:47:51;100743.93;;;4.90;66.93
84994;BME280;75309;44.830;20.460;2024-01-16T09:50:20;100746.51;;;4.90;66.83
84994;BME280;75309;44.830;20.460;2024-01-16T09:52:48;100743.70;;;4.89;66.64
84994;BME280;75309;44.830;20.460;2024-01-16T09:55:17;100744.06;;;4.90;66.90
84994;BME280;75309;44.830;20.460;2024-01-16T09:57:45;100742.11;;;4.93;67.14
84994;BME280;75309;44.830;20.460;2024-01-16T10:00:19;100734.96;;;4.98;66.90
84994;BME280;75309;44.830;20.460;2024-01-16T10:02:50;100735.14;;;5.05;66.82
84994;BME280;75309;44.830;20.460;2024-01-16T10:05:18;100733.06;;;5.11;66.55
84994;BME280;75309;44.830;20.460;2024-01-16T10:07:46;100730.95;;;5.18;66.82
84994;BME280;75309;44.830;20.460;2024-01-16T10:10:15;100732.90;;;5.21;66.84
84994;BME280;75309;44.830;20.460;2024-01-16T10:12:57;100738.54;;;5.21;66.51
84994;BME280;75309;44.830;20.460;2024-01-16T10:15:25;100738.53;;;5.21;65.98
84994;BME280;75309;44.830;20.460;2024-01-16T10:17:53;100737.29;;;5.23;65.79
84994;BME280;75309;44.830;20.460;2024-01-16T10:20:34;100736.24;;;5.25;65.03
84994;BME280;75309;44.830;20.460;2024-01-16T10:23:04;100734.95;;;5.29;64.68
84994;BME280;75309;44.830;20.460;2024-01-16T10:25:32;100730.20;;;5.31;64.77
84994;BME280;75309;44.830;20.460;2024-01-16T10:28:04;100728.29;;;5.33;64.27
84994;BME280;75309;44.830;20.460;2024-01-16T10:30:35;100724.25;;;5.36;63.69
84994;BME280;75309;44.830;20.460;2024-01-16T10:33:14;100719.92;;;5.39;63.76
84994;BME280;75309;44.830;20.460;2024-01-16T10:35:43;100721.77;;;5.39;63.91
84994;BME280;75309;44.830;20.460;2024-01-16T10:38:20;100717.90;;;5.37;63.61
84994;BME280;75309;44.830;20.460;2024-01-16T10:41:04;100715.80;;;5.34;63.02
84994;BME280;75309;44.830;20.460;2024-01-16T10:43:32;100719.19;;;5.32;62.33
84994;BME280;75309;44.830;20.460;2024-01-16T10:46:10;100718.85;;;5.32;62.33
84994;BME280;75309;44.830;20.460;2024-01-16T10:48:42;100717.89;;;5.32;61.54
84994;BME280;75309;44.830;20.460;2024-01-16T10:51:14;100718.35;;;5.34;61.25
84994;BME280;75309;44.830;20.460;2024-01-16T10:53:44;100716.67;;;5.35;61.39
84994;BME280;75309;44.830;20.460;2024-01-16T10:56:17;100715.98;;;5.34;60.83
84994;BME280;75309;44.830;20.460;2024-01-16T10:58:54;100709.98;;;5.34;60.18
84994;BME280;75309;44.830;20.460;2024-01-16T11:01:26;100711.58;;;5.32;58.40
84994;BME280;75309;44.830;20.460;2024-01-16T11:03:56;100706.55;;;5.33;56.86
84994;BME280;75309;44.830;20.460;2024-01-16T11:06:27;100704.73;;;5.36;57.72
84994;BME280;75309;44.830;20.460;2024-01-16T11:08:57;100712.25;;;5.39;57.82
84994;BME280;75309;44.830;20.460;2024-01-16T11:11:26;100705.72;;;5.41;56.99
84994;BME280;75309;44.830;20.460;2024-01-16T11:13:57;100702.70;;;5.41;56.21
84994;BME280;75309;44.830;20.460;2024-01-16T11:16:26;100703.98;;;5.42;55.36
84994;BME280;75309;44.830;20.460;2024-01-16T11:18:57;100704.24;;;5.44;54.69
84994;BME280;75309;44.830;20.460;2024-01-16T11:21:45;100702.31;;;5.46;53.13
84994;BME280;75309;44.830;20.460;2024-01-16T11:24:15;100703.01;;;5.48;53.19
84994;BME280;75309;44.830;20.460;2024-01-16T11:26:43;100700.24;;;5.50;52.98
84994;BME280;75309;44.830;20.460;2024-01-16T11:31:59;100700.69;;;5.51;52.77
84994;BME280;75309;44.830;20.460;2024-01-16T11:37:26;100703.52;;;5.53;52.22
84994;BME280;75309;44.830;20.460;2024-01-16T11:42:54;100705.80;;;5.56;51.86
84994;BME280;75309;44.830;20.460;2024-01-16T11:48:16;100704.88;;;5.58;49.35
84994;BME280;75309;44.830;20.460;2024-01-16T11:50:46;100705.64;;;5.59;49.72
84994;BME280;75309;44.830;20.460;2024-01-16T11:53:33;100701.54;;;5.61;49.95
84994;BME280;75309;44.830;20.460;2024-01-16T11:59:43;100700.98;;;5.68;50.11
84994;BME280;75309;44.830;20.460;2024-01-16T12:02:21;100698.17;;;5.72;49.54
84994;BME280;75309;44.830;20.460;2024-01-16T12:04:53;100697.34;;;5.74;49.88
84994;BME280;75309;44.830;20.460;2024-01-16T12:07:23;100695.15;;;5.77;50.19
84994;BME280;75309;44.830;20.460;2024-01-16T12:09:50;100692.62;;;5.78;50.14
84994;BME280;75309;44.830;20.460;2024-01-16T12:12:19;100690.77;;;5.78;49.76
84994;BME280;75309;44.830;20.460;2024-01-16T12:14:52;100690.95;;;5.78;48.33
84994;BME280;75309;44.830;20.460;2024-01-16T12:17:28;100691.17;;;5.79;49.57
84994;BME280;75309;44.830;20.460;2024-01-16T12:19:57;100688.95;;;5.79;49.60
84994;BME280;75309;44.830;20.460;2024-01-16T12:22:25;100689.20;;;5.80;49.16
84994;BME280;75309;44.830;20.460;2024-01-16T12:24:56;100692.06;;;5.82;49.43
84994;BME280;75309;44.830;20.460;2024-01-16T12:27:26;100691.05;;;5.82;48.40
84994;BME280;75309;44.830;20.460;2024-01-16T12:30:07;100690.03;;;5.82;49.41
84994;BME280;75309;44.830;20.460;2024-01-16T12:32:36;100689.86;;;5.82;49.48
84994;BME280;75309;44.830;20.460;2024-01-16T12:35:05;100688.98;;;5.84;49.83
84994;BME280;75309;44.830;20.460;2024-01-16T12:37:34;100688.98;;;5.84;50.14
84994;BME280;75309;44.830;20.460;2024-01-16T12:40:03;100688.33;;;5.82;50.64
84994;BME280;75309;44.830;20.460;2024-01-16T12:42:33;100689.00;;;5.80;50.50
84994;BME280;75309;44.830;20.460;2024-01-16T12:45:08;100690.73;;;5.77;50.55
84994;BME280;75309;44.830;20.460;2024-01-16T12:47:36;100690.10;;;5.75;49.80
84994;BME280;75309;44.830;20.460;2024-01-16T12:50:06;100692.41;;;5.74;49.93
84994;BME280;75309;44.830;20.460;2024-01-16T12:52:35;100693.36;;;5.74;48.99
84994;BME280;75309;44.830;20.460;2024-01-16T12:55:05;100695.46;;;5.75;49.93
84994;BME280;75309;44.830;20.460;2024-01-16T12:57:33;100701.11;;;5.78;49.26
84994;BME280;75309;44.830;20.460;2024-01-16T13:00:20;100695.61;;;5.79;48.02
84994;BME280;75309;44.830;20.460;2024-01-16T13:02:50;100691.55;;;5.82;47.99
84994;BME280;75309;44.830;20.460;2024-01-16T13:05:18;100685.56;;;5.84;48.07
84994;BME280;75309;44.830;20.460;2024-01-16T13:07:59;100685.67;;;5.85;48.62
84994;BME280;75309;44.830;20.460;2024-01-16T13:10:30;100685.41;;;5.87;48.25
84994;BME280;75309;44.830;20.460;2024-01-16T13:13:31;100684.28;;;5.87;47.70
84994;BME280;75309;44.830;20.460;2024-01-16T13:16:02;100684.02;;;5.88;48.10